createdAt,value
2019-02-07T00:01:25.805Z,51.8
2019-02-07T00:11:27.552Z,47.8
2019-02-07T00:21:27.542Z,49.1
2019-02-07T00:31:26.452Z,50.7
2019-02-07T00:41:26.963Z,48.8
2019-02-07T00:51:28.856Z,46.9
2019-02-07T01:01:27.642Z,47.7
2019-02-07T01:11:26.390Z,45.4
2019-02-07T01:21:26.493Z,46.1
2019-02-07T01:31:26.170Z,47.8
2019-02-07T01:41:26.245Z,46.6
2019-02-07T01:51:26.394Z,48.6
2019-02-07T02:01:27.141Z,43.3
2019-02-07T02:11:25.716Z,44.6
2019-02-07T02:21:26.793Z,45.2
2019-02-07T02:31:27.451Z,44.3
2019-02-07T02:41:26.260Z,46.0
2019-02-07T02:51:26.127Z,44.7
2019-02-07T03:01:25.850Z,45.7
2019-02-07T03:11:28.280Z,45.3
2019-02-07T03:21:26.256Z,46.0
2019-02-07T03:31:25.987Z,45.5
2019-02-07T03:41:26.564Z,44.2
2019-02-07T03:51:27.148Z,46.1
2019-02-07T04:01:25.906Z,45.4
2019-02-07T04:11:27.035Z,44.7
2019-02-07T04:21:26.502Z,46.8
2019-02-07T04:31:26.187Z,48.2
2019-02-07T04:41:26.274Z,45.9
2019-02-07T04:51:26.501Z,45.4
2019-02-07T05:01:27.596Z,45.5
2019-02-07T05:11:26.511Z,46.8
2019-02-07T05:21:26.404Z,49.0
2019-02-07T05:31:28.347Z,51.4
2019-02-07T05:41:31.601Z,55.1
2019-02-07T05:51:27.504Z,54.2
2019-02-07T06:01:27.640Z,48.5
2019-02-07T06:11:26.748Z,46.6
2019-02-07T06:21:28.370Z,49.9
2019-02-07T06:31:26.926Z,45.0
2019-02-07T06:41:26.897Z,41.4
2019-02-07T06:51:26.561Z,43.6
2019-02-07T07:01:26.948Z,40.9
2019-02-07T07:11:27.626Z,41.1
2019-02-07T07:21:26.745Z,40.8
2019-02-07T07:31:26.681Z,37.5
2019-02-07T07:41:26.936Z,39.0
2019-02-07T07:51:31.994Z,38.8
2019-02-07T08:01:26.316Z,49.0
2019-02-07T08:11:27.111Z,49.6
2019-02-07T08:21:26.347Z,39.4
2019-02-07T08:31:26.490Z,44.4
2019-02-07T08:41:26.232Z,42.4
2019-02-07T08:51:25.861Z,41.9
2019-02-07T09:01:30.286Z,35.8
2019-02-07T09:11:26.223Z,32.0
2019-02-07T09:21:26.068Z,38.3
2019-02-07T09:31:26.622Z,33.7
2019-02-07T09:41:28.650Z,24.3
2019-02-07T09:51:26.456Z,24.0
2019-02-07T10:01:26.356Z,20.5
2019-02-07T10:11:27.038Z,21.5
2019-02-07T10:21:25.875Z,20.3
2019-02-07T10:31:26.807Z,19.7
2019-02-07T10:41:27.420Z,18.6
2019-02-07T10:51:26.246Z,18.8
2019-02-07T11:01:27.119Z,19.4
2019-02-07T11:11:26.196Z,18.2
2019-02-07T11:21:26.709Z,18.0
2019-02-07T11:31:26.660Z,20.7
2019-02-07T11:41:26.473Z,22.0
2019-02-07T11:51:27.808Z,23.3
2019-02-07T12:01:27.222Z,22.0
2019-02-07T12:11:26.377Z,23.0
2019-02-07T12:21:26.624Z,23.6
2019-02-07T12:31:26.147Z,23.5
2019-02-07T12:41:25.947Z,23.2
2019-02-07T12:51:28.085Z,21.8
2019-02-07T13:01:25.871Z,19.9
2019-02-07T13:11:26.875Z,18.2
2019-02-07T13:21:25.965Z,18.3
2019-02-07T13:31:25.882Z,20.5
2019-02-07T13:41:27.118Z,19.7
2019-02-07T13:51:26.909Z,18.0
2019-02-07T14:01:27.699Z,20.1
2019-02-07T14:11:26.646Z,17.8
2019-02-07T14:21:28.391Z,19.0
2019-02-07T14:31:26.934Z,18.1
2019-02-07T14:41:27.738Z,19.2
2019-02-07T14:51:26.912Z,18.1
2019-02-07T15:01:27.024Z,18.0
2019-02-07T15:11:26.283Z,18.9
2019-02-07T15:21:26.176Z,19.6
2019-02-07T15:31:26.339Z,19.5
2019-02-07T15:41:26.167Z,21.6
2019-02-07T15:51:26.341Z,21.0
2019-02-07T16:01:26.802Z,21.0
2019-02-07T16:11:27.299Z,19.6
2019-02-07T16:21:27.553Z,19.8
2019-02-07T16:31:28.023Z,19.4
2019-02-07T16:41:26.172Z,22.3
2019-02-07T16:51:26.123Z,22.8
2019-02-07T17:01:26.717Z,22.6
2019-02-07T17:11:26.442Z,23.5
2019-02-07T17:21:26.720Z,23.0
2019-02-07T17:31:26.628Z,23.8
2019-02-07T17:41:26.527Z,23.7
2019-02-07T17:51:26.468Z,23.2
2019-02-07T18:01:26.396Z,25.9
2019-02-07T18:11:26.705Z,30.7
2019-02-07T18:21:33.818Z,48.0
2019-02-07T18:31:28.471Z,46.3
2019-02-07T18:41:28.556Z,46.3
2019-02-07T18:51:26.483Z,47.9
2019-02-07T19:01:26.597Z,48.7
2019-02-07T19:11:27.183Z,48.0
2019-02-07T19:21:26.244Z,50.3
2019-02-07T19:31:26.052Z,47.0
2019-02-07T19:41:25.940Z,52.9
2019-02-07T19:51:28.642Z,75.5
2019-02-07T20:01:27.150Z,56.6
2019-02-07T20:11:27.010Z,53.3
2019-02-07T20:21:26.621Z,48.8
2019-02-07T20:31:29.187Z,50.1
2019-02-07T20:41:26.238Z,50.6
2019-02-07T20:51:26.696Z,54.1
2019-02-07T21:01:26.542Z,54.7
2019-02-07T21:11:27.729Z,57.6
2019-02-07T21:21:26.861Z,55.1
2019-02-07T21:31:29.188Z,54.9
2019-02-07T21:41:25.776Z,55.7
2019-02-07T21:51:27.465Z,55.5
2019-02-07T22:01:26.386Z,53.0
2019-02-07T22:11:27.452Z,49.8
2019-02-07T22:21:26.864Z,50.8
2019-02-07T22:31:27.724Z,52.3
2019-02-07T22:41:25.916Z,48.6
2019-02-07T22:51:26.792Z,47.9
2019-02-07T23:01:27.141Z,49.8
2019-02-07T23:11:27.379Z,48.5
2019-02-07T23:21:27.749Z,47.3
2019-02-07T23:31:27.380Z,48.1
2019-02-07T23:41:26.163Z,49.3
2019-02-07T23:51:26.620Z,49.6
